createdAt,value
2022-12-08T00:02:05.954Z,100429.69
2022-12-08T00:04:32.368Z,100424.59
2022-12-08T00:06:58.534Z,100421.00
2022-12-08T00:09:24.782Z,100420.28
2022-12-08T00:11:50.981Z,100424.50
2022-12-08T00:14:17.152Z,100415.03
2022-12-08T00:16:44.584Z,100422.84
2022-12-08T00:19:10.801Z,100414.38
2022-12-08T00:21:36.989Z,100415.31
2022-12-08T00:24:03.245Z,100419.41
2022-12-08T00:26:29.439Z,100414.38
2022-12-08T00:29:01.161Z,100412.72
2022-12-08T00:31:27.412Z,100411.94
2022-12-08T00:33:53.618Z,100406.84
2022-12-08T00:36:19.847Z,100400.81
2022-12-08T00:38:47.979Z,100400.81
2022-12-08T00:41:14.110Z,100394.00
2022-12-08T00:43:40.282Z,100388.97
2022-12-08T00:46:06.596Z,100394.00
2022-12-08T00:48:32.817Z,100392.34
2022-12-08T00:50:59.020Z,100395.63
2022-12-08T00:53:25.175Z,100392.25
2022-12-08T00:55:51.439Z,100388.78
2022-12-08T00:58:17.629Z,100393.88
2022-12-08T01:00:43.876Z,100392.19
2022-12-08T01:03:10.200Z,100384.47
2022-12-08T01:05:36.474Z,100386.25
2022-12-08T01:08:02.677Z,100389.59
2022-12-08T01:10:28.895Z,100383.63
2022-12-08T01:12:55.046Z,100388.84
2022-12-08T01:15:21.276Z,100388.00
2022-12-08T01:17:47.417Z,100384.50
2022-12-08T01:20:13.567Z,100387.06
2022-12-08T01:22:39.728Z,100387.88
2022-12-08T01:25:06.186Z,100392.34
2022-12-08T01:27:32.302Z,100388.94
2022-12-08T01:29:58.466Z,100387.31
2022-12-08T01:32:24.625Z,100385.50
2022-12-08T01:34:50.837Z,100389.06
2022-12-08T01:37:17.034Z,100390.78
2022-12-08T01:39:43.256Z,100395.94
2022-12-08T01:42:09.405Z,100387.41
2022-12-08T01:44:35.530Z,100389.06
2022-12-08T01:47:01.701Z,100393.31
2022-12-08T01:49:27.919Z,100371.91
2022-12-08T01:51:54.056Z,100374.44
2022-12-08T01:54:20.190Z,100372.78
2022-12-08T01:56:46.361Z,100366.94
2022-12-08T01:59:12.547Z,100363.44
2022-12-08T02:01:38.790Z,100365.22
2022-12-08T02:04:05.086Z,100363.41
2022-12-08T02:06:31.275Z,100355.66
2022-12-08T02:08:57.450Z,100348.88
2022-12-08T02:11:23.695Z,100352.28
2022-12-08T02:13:49.854Z,100345.38
2022-12-08T02:16:16.091Z,100338.66
2022-12-08T02:18:42.359Z,100337.00
2022-12-08T02:21:08.481Z,100330.19
2022-12-08T02:23:34.705Z,100329.28
2022-12-08T02:26:00.851Z,100325.97
2022-12-08T02:28:26.964Z,100329.41
2022-12-08T02:30:53.174Z,100329.41
2022-12-08T02:33:19.429Z,100326.00
2022-12-08T02:35:45.629Z,100321.69
2022-12-08T02:38:11.785Z,100325.97
2022-12-08T02:40:37.953Z,100328.63
2022-12-08T02:43:04.108Z,100328.59
2022-12-08T02:45:30.248Z,100330.28
2022-12-08T02:47:56.414Z,100324.38
2022-12-08T02:50:22.620Z,100326.91
2022-12-08T02:52:48.789Z,100323.50
2022-12-08T02:55:14.964Z,100323.44
2022-12-08T02:57:41.137Z,100320.03
2022-12-08T03:00:07.669Z,100324.38
2022-12-08T03:02:34.141Z,100322.72
2022-12-08T03:05:00.478Z,100324.38
2022-12-08T03:07:26.668Z,100319.34
2022-12-08T03:09:52.845Z,100323.63
2022-12-08T03:12:19.035Z,100312.53
2022-12-08T03:14:45.202Z,100305.63
2022-12-08T03:17:11.388Z,100314.28
2022-12-08T03:19:37.576Z,100311.72
2022-12-08T03:22:03.765Z,100312.53
2022-12-08T03:24:29.901Z,100311.66
2022-12-08T03:26:56.065Z,100315.09
2022-12-08T03:29:22.261Z,100316.75
2022-12-08T03:31:48.426Z,100315.06
2022-12-08T03:34:14.552Z,100307.34
2022-12-08T03:36:40.717Z,100309.03
2022-12-08T03:39:06.925Z,100308.25
2022-12-08T03:41:33.143Z,100297.09
2022-12-08T03:43:59.315Z,100295.41
2022-12-08T03:48:50.577Z,100295.31
2022-12-08T03:51:16.753Z,100291.09
2022-12-08T03:53:42.952Z,100292.88
2022-12-08T03:56:09.153Z,100292.03
2022-12-08T03:58:37.602Z,100293.75
2022-12-08T04:01:03.878Z,100286.91
2022-12-08T04:03:30.028Z,100286.91
2022-12-08T04:05:56.216Z,100282.66
2022-12-08T04:08:22.443Z,100279.22
2022-12-08T04:10:48.613Z,100262.13
2022-12-08T04:13:14.740Z,100269.00
2022-12-08T04:15:40.964Z,100271.66
2022-12-08T04:18:07.150Z,100262.19
2022-12-08T04:20:33.310Z,100277.53
2022-12-08T04:22:59.533Z,100265.59
2022-12-08T04:25:25.917Z,100260.50
2022-12-08T04:27:52.097Z,100263.97
2022-12-08T04:30:18.302Z,100265.66
2022-12-08T04:32:47.517Z,100260.56
2022-12-08T04:35:13.966Z,100257.06
2022-12-08T04:37:40.111Z,100262.34
2022-12-08T04:40:06.557Z,100252.06
2022-12-08T04:42:32.941Z,100255.41
2022-12-08T04:44:59.141Z,100254.56
2022-12-08T04:47:25.297Z,100252.91
2022-12-08T04:49:51.499Z,100252.06
2022-12-08T04:52:17.751Z,100256.38
2022-12-08T04:54:43.885Z,100252.91
2022-12-08T04:57:10.113Z,100258.88
2022-12-08T04:59:36.233Z,100258.06
2022-12-08T05:02:02.552Z,100248.66
2022-12-08T05:04:28.898Z,100256.38
2022-12-08T05:06:55.019Z,100249.53
2022-12-08T05:09:21.160Z,100225.72
2022-12-08T05:11:49.186Z,100249.47
2022-12-08T05:14:15.551Z,100255.31
2022-12-08T05:16:41.725Z,100249.34
2022-12-08T05:19:07.997Z,100247.56
2022-12-08T05:21:34.159Z,100247.56
2022-12-08T05:24:00.422Z,100250.13
2022-12-08T05:26:26.571Z,100245.78
2022-12-08T05:28:52.684Z,100236.25
2022-12-08T05:31:18.922Z,100238.00
2022-12-08T05:33:45.161Z,100243.09
2022-12-08T05:36:11.273Z,100240.50
2022-12-08T05:38:37.419Z,100249.09
2022-12-08T05:41:03.534Z,100248.25
2022-12-08T05:43:29.717Z,100236.06
2022-12-08T05:45:56.047Z,100233.69
2022-12-08T05:48:22.269Z,100237.31
2022-12-08T05:50:48.427Z,100233.00
2022-12-08T05:53:14.546Z,100231.25
2022-12-08T05:55:40.743Z,100228.78
2022-12-08T05:58:08.104Z,100231.38
2022-12-08T06:00:34.373Z,100233.16
2022-12-08T06:03:00.631Z,100229.78
2022-12-08T06:05:26.899Z,100220.31
2022-12-08T06:07:53.081Z,100223.69
2022-12-08T06:10:19.240Z,100228.78
2022-12-08T06:12:45.442Z,100224.50
2022-12-08T06:15:11.656Z,100219.22
2022-12-08T06:17:37.775Z,100223.44
2022-12-08T06:20:04.212Z,100220.06
2022-12-08T06:22:30.680Z,100218.28
2022-12-08T06:24:56.842Z,100222.56
2022-12-08T06:27:23.032Z,100222.50
2022-12-08T06:29:49.184Z,100222.53
2022-12-08T06:32:15.446Z,100219.03
2022-12-08T06:34:41.637Z,100218.28
2022-12-08T06:37:07.824Z,100228.56
2022-12-08T06:39:34.009Z,100223.38
2022-12-08T06:42:00.196Z,100227.53
2022-12-08T06:44:27.604Z,100227.63
2022-12-08T06:46:53.845Z,100233.66
2022-12-08T06:49:20.119Z,100237.03
2022-12-08T06:51:53.376Z,100242.16
2022-12-08T06:54:22.817Z,100242.16
2022-12-08T06:56:49.051Z,100248.91
2022-12-08T06:59:15.312Z,100237.66
2022-12-08T07:01:41.603Z,100235.88
2022-12-08T07:04:07.805Z,100242.72
2022-12-08T07:06:33.945Z,100232.34
2022-12-08T07:09:00.157Z,100242.66
2022-12-08T07:11:26.290Z,100243.44
2022-12-08T07:13:52.494Z,100245.06
2022-12-08T07:16:18.705Z,100246.81
2022-12-08T07:18:44.924Z,100239.97
2022-12-08T07:21:11.060Z,100245.06
2022-12-08T07:23:37.227Z,100239.94
2022-12-08T07:26:03.970Z,100244.28
2022-12-08T07:28:30.201Z,100245.22
2022-12-08T07:30:56.400Z,100242.50
2022-12-08T07:33:22.654Z,100236.50
2022-12-08T07:35:49.461Z,100237.34
2022-12-08T07:38:15.718Z,100233.03
2022-12-08T07:40:41.866Z,100227.88
2022-12-08T07:43:08.032Z,100226.03
2022-12-08T07:45:34.227Z,100225.09
2022-12-08T07:48:00.429Z,100219.13
2022-12-08T07:50:26.620Z,100217.38
2022-12-08T07:52:52.846Z,100222.59
2022-12-08T07:55:19.084Z,100223.31
2022-12-08T07:57:45.269Z,100213.69
2022-12-08T08:00:12.867Z,100217.09
2022-12-08T08:02:39.169Z,100218.75
2022-12-08T08:05:05.606Z,100207.66
2022-12-08T08:07:31.844Z,100202.38
2022-12-08T08:09:58.056Z,100208.34
2022-12-08T08:12:32.602Z,100214.50
2022-12-08T08:14:59.020Z,100212.00
2022-12-08T08:17:25.333Z,100211.03
2022-12-08T08:19:51.599Z,100221.25
2022-12-08T08:22:17.762Z,100212.72
2022-12-08T08:24:45.248Z,100207.50
2022-12-08T08:27:11.547Z,100211.78
2022-12-08T08:29:37.739Z,100213.56
2022-12-08T08:32:03.886Z,100216.09
2022-12-08T08:34:30.064Z,100210.00
2022-12-08T08:36:56.274Z,100206.38
2022-12-08T08:39:22.427Z,100212.38
2022-12-08T08:41:48.618Z,100210.59
2022-12-08T08:44:14.830Z,100210.41
2022-12-08T08:46:41.198Z,100211.34
2022-12-08T08:49:07.446Z,100213.75
2022-12-08T08:51:33.666Z,100215.50
2022-12-08T08:53:59.874Z,100202.53
2022-12-08T08:56:26.101Z,100204.13
2022-12-08T08:58:52.281Z,100202.25
2022-12-08T09:01:18.518Z,100200.16
2022-12-08T09:03:44.824Z,100199.84
2022-12-08T09:06:10.976Z,100191.16
2022-12-08T09:08:37.165Z,100187.59
2022-12-08T09:11:03.346Z,100188.25
2022-12-08T09:13:29.482Z,100185.72
2022-12-08T09:15:55.757Z,100182.41
2022-12-08T09:18:22.030Z,100186.53
2022-12-08T09:20:48.229Z,100184.75
2022-12-08T09:23:14.406Z,100182.91
2022-12-08T09:25:40.591Z,100182.63
2022-12-08T09:28:06.758Z,100170.50
2022-12-08T09:30:32.953Z,100168.78
2022-12-08T09:32:59.108Z,100166.19
2022-12-08T09:35:25.229Z,100174.22
2022-12-08T09:37:51.391Z,100160.66
2022-12-08T09:40:17.569Z,100157.34
2022-12-08T09:42:43.884Z,100164.00
2022-12-08T09:45:10.075Z,100159.41
2022-12-08T09:47:36.576Z,100156.47
2022-12-08T09:50:03.566Z,100150.41
2022-12-08T09:52:30.024Z,100148.38
2022-12-08T09:54:56.207Z,100143.31
2022-12-08T09:57:22.403Z,100139.00
2022-12-08T09:59:48.539Z,100151.78
2022-12-08T10:02:14.807Z,100145.91
2022-12-08T10:04:41.101Z,100139.50
2022-12-08T10:07:07.350Z,100142.19
2022-12-08T10:09:33.558Z,100127.63
2022-12-08T10:11:59.764Z,100127.91
2022-12-08T10:14:26.057Z,100123.94
2022-12-08T10:16:52.296Z,100125.81
2022-12-08T10:19:18.526Z,100115.28
2022-12-08T10:21:44.682Z,100111.41
2022-12-08T10:24:10.828Z,100109.63
2022-12-08T10:26:36.963Z,100114.22
2022-12-08T10:29:03.903Z,100097.69
2022-12-08T10:31:30.157Z,100102.34
2022-12-08T10:33:56.360Z,100106.84
2022-12-08T10:36:22.566Z,100094.81
2022-12-08T10:38:48.687Z,100097.09
2022-12-08T10:41:14.895Z,100095.03
2022-12-08T10:43:41.045Z,100095.59
2022-12-08T10:46:07.313Z,100095.41
2022-12-08T10:48:33.582Z,100092.72
2022-12-08T10:50:59.711Z,100098.09
2022-12-08T10:53:25.881Z,100096.38
2022-12-08T10:55:52.026Z,100094.81
2022-12-08T10:58:18.279Z,100082.19
2022-12-08T11:00:44.500Z,100084.75
2022-12-08T11:03:10.771Z,100073.31
2022-12-08T11:05:36.958Z,100068.09
2022-12-08T11:08:03.205Z,100069.56
2022-12-08T11:10:29.427Z,100068.03
2022-12-08T11:12:55.618Z,100066.56
2022-12-08T11:15:21.749Z,100062.31
2022-12-08T11:17:49.359Z,100053.41
2022-12-08T11:20:17.284Z,100048.97
2022-12-08T11:22:43.550Z,100044.47
2022-12-08T11:25:09.677Z,100043.00
2022-12-08T11:27:35.908Z,100034.94
2022-12-08T11:30:02.370Z,100030.88
2022-12-08T11:32:28.809Z,100027.72
2022-12-08T11:34:55.015Z,100027.84
2022-12-08T11:37:21.256Z,100024.16
2022-12-08T11:39:47.389Z,100028.34
2022-12-08T11:42:13.524Z,100020.31
2022-12-08T11:44:39.720Z,100020.75
2022-12-08T11:47:05.884Z,100022.78
2022-12-08T11:49:32.003Z,100023.28
2022-12-08T11:51:58.140Z,100015.13
2022-12-08T11:54:24.312Z,100013.59
2022-12-08T11:56:50.526Z,100012.25
2022-12-08T11:59:16.667Z,100014.53
2022-12-08T12:01:42.959Z,100012.34
2022-12-08T12:04:09.156Z,100006.53
2022-12-08T12:06:53.706Z,100014.06
2022-12-08T12:09:21.150Z,100006.91
2022-12-08T12:11:47.336Z,100007.72
2022-12-08T12:14:13.485Z,100003.41
2022-12-08T12:16:39.701Z,99995.19
2022-12-08T12:19:05.878Z,99990.63
2022-12-08T12:21:32.034Z,99995.47
2022-12-08T12:23:58.219Z,99989.59
2022-12-08T12:26:24.430Z,99989.09
2022-12-08T12:28:50.561Z,99983.16
2022-12-08T12:31:16.798Z,99985.00
2022-12-08T12:33:43.057Z,99989.31
2022-12-08T12:36:09.255Z,99992.81
2022-12-08T13:00:41.641Z,99961.84
2022-12-08T13:03:07.937Z,99965.34
2022-12-08T13:05:34.123Z,99972.25
2022-12-08T13:08:00.353Z,99966.78
2022-12-08T13:10:26.560Z,99961.97
2022-12-08T13:12:52.697Z,99967.78
2022-12-08T13:15:18.880Z,99962.59
2022-12-08T13:17:45.066Z,99969.22
2022-12-08T13:20:11.618Z,99965.03
2022-12-08T13:22:37.805Z,99971.84
2022-12-08T13:25:04.038Z,99963.88
2022-12-08T13:27:30.232Z,99962.72
2022-12-08T13:29:56.405Z,99962.72
2022-12-08T13:32:22.563Z,99961.38
2022-12-08T13:34:48.683Z,99963.75
2022-12-08T13:37:14.978Z,99968.41
2022-12-08T13:39:41.145Z,99957.41
2022-12-08T13:42:07.343Z,99957.34
2022-12-08T13:47:35.320Z,99953.22
2022-12-08T13:58:20.510Z,99961.47
2022-12-08T14:00:46.696Z,99961.78
2022-12-08T14:03:12.982Z,99956.63
2022-12-08T14:06:10.507Z,99952.06
2022-12-08T14:08:51.044Z,99949.69
2022-12-08T14:11:11.422Z,99948.53
2022-12-08T14:13:37.571Z,99951.88
2022-12-08T14:16:03.747Z,99951.25
2022-12-08T14:18:29.920Z,99945.78
2022-12-08T14:21:19.856Z,99942.47
2022-12-08T14:23:42.222Z,99954.38
2022-12-08T14:26:08.349Z,99952.16
2022-12-08T14:28:35.504Z,99961.63
2022-12-08T14:31:04.002Z,99955.09
2022-12-08T14:33:30.240Z,99955.59
2022-12-08T14:35:56.377Z,99956.97
2022-12-08T14:38:22.576Z,99958.72
2022-12-08T14:40:48.815Z,99966.47
2022-12-08T14:43:14.987Z,99955.25
2022-12-08T14:45:41.153Z,99966.69
2022-12-08T14:48:07.467Z,99962.56
2022-12-08T14:50:33.696Z,99966.28
2022-12-08T14:52:59.907Z,99966.50
2022-12-08T14:55:26.099Z,99967.34
2022-12-08T14:57:52.284Z,99959.75
2022-12-08T15:00:18.443Z,99969.13
2022-12-08T15:02:44.566Z,99963.31
2022-12-08T15:05:10.811Z,99967.75
2022-12-08T15:07:37.099Z,99966.13
2022-12-08T15:10:03.544Z,99973.06
2022-12-08T15:12:29.945Z,99968.78
2022-12-08T15:14:56.145Z,99964.78
2022-12-08T15:17:22.297Z,99972.84
2022-12-08T15:19:48.437Z,99966.22
2022-12-08T15:22:14.679Z,99963.91
2022-12-08T15:24:40.854Z,99973.66
2022-12-08T15:27:06.983Z,99964.44
2022-12-08T15:29:33.173Z,99967.09
2022-12-08T15:31:59.300Z,99968.03
2022-12-08T15:34:25.490Z,99967.97
2022-12-08T15:36:51.657Z,99973.91
2022-12-08T15:39:17.862Z,99972.84
2022-12-08T15:41:44.011Z,99963.22
2022-12-08T15:44:10.225Z,99959.81
2022-12-08T15:46:36.474Z,99964.88
2022-12-08T15:49:02.707Z,99963.22
2022-12-08T15:51:28.904Z,99960.53
2022-12-08T15:53:55.034Z,99962.34
2022-12-08T15:56:28.737Z,99961.59
2022-12-08T15:58:57.026Z,99957.09
2022-12-08T16:01:24.113Z,99959.50
2022-12-08T16:09:26.386Z,99957.16
2022-12-08T16:12:09.948Z,99961.63
2022-12-08T16:17:22.733Z,99950.78
2022-12-08T16:19:48.919Z,99945.03
2022-12-08T16:22:52.376Z,99950.41
2022-12-08T16:25:14.679Z,99952.31
2022-12-08T16:28:01.172Z,99949.94
2022-12-08T16:30:29.577Z,99947.41
2022-12-08T16:32:55.703Z,99944.53
2022-12-08T16:35:21.884Z,99947.28
2022-12-08T16:37:48.045Z,99943.72
2022-12-08T16:40:14.210Z,99943.75
2022-12-08T16:42:40.381Z,99945.78
2022-12-08T16:45:06.869Z,99933.84
2022-12-08T16:47:33.193Z,99941.53
2022-12-08T16:49:59.709Z,99939.00
2022-12-08T16:52:25.850Z,99936.56
2022-12-08T16:54:52.031Z,99942.63
2022-12-08T16:57:18.243Z,99943.47
2022-12-08T16:59:44.400Z,99940.13
2022-12-08T17:02:16.180Z,99946.19
2022-12-08T17:04:42.708Z,99936.78
2022-12-08T17:07:08.955Z,99941.06
2022-12-08T17:09:35.083Z,99935.09
2022-12-08T17:12:04.043Z,99935.03
2022-12-08T17:14:30.498Z,99940.22
2022-12-08T17:16:56.737Z,99938.44
2022-12-08T17:19:22.922Z,99938.50
2022-12-08T17:21:49.064Z,99939.31
2022-12-08T17:24:20.200Z,99940.13
2022-12-08T17:26:47.904Z,99941.06
2022-12-08T17:29:14.090Z,99933.34
2022-12-08T17:31:40.274Z,99936.66
2022-12-08T17:34:06.431Z,99934.06
2022-12-08T17:36:32.637Z,99934.16
2022-12-08T17:38:58.825Z,99932.31
2022-12-08T17:41:25.008Z,99935.69
2022-12-08T17:43:51.163Z,99930.56
2022-12-08T17:46:17.385Z,99928.91
2022-12-08T17:48:43.588Z,99928.97
2022-12-08T17:51:09.733Z,99926.28
2022-12-08T17:53:37.491Z,99933.22
2022-12-08T17:56:03.880Z,99934.06
2022-12-08T17:58:30.105Z,99923.84
2022-12-08T18:00:56.289Z,99930.72
2022-12-08T18:03:22.539Z,99932.47
2022-12-08T18:05:48.701Z,99929.09
2022-12-08T18:08:14.961Z,99930.59
2022-12-08T18:10:41.298Z,99928.19
2022-12-08T18:13:07.512Z,99930.84
2022-12-08T18:15:37.572Z,99929.19
2022-12-08T18:18:05.411Z,99930.13
2022-12-08T18:20:31.533Z,99935.22
2022-12-08T18:22:57.698Z,99936.00
2022-12-08T18:25:23.930Z,99935.97
2022-12-08T18:27:50.097Z,99930.75
2022-12-08T18:30:16.221Z,99938.66
2022-12-08T18:32:42.342Z,99935.28
2022-12-08T18:35:08.470Z,99936.19
2022-12-08T18:37:34.600Z,99928.50
2022-12-08T18:40:00.749Z,99926.94
2022-12-08T18:42:26.933Z,99927.03
2022-12-08T18:44:53.060Z,99923.66
2022-12-08T18:47:19.266Z,99916.91
2022-12-08T18:49:45.417Z,99923.84
2022-12-08T18:52:11.592Z,99919.41
2022-12-08T18:55:04.767Z,99928.09
2022-12-08T18:57:23.939Z,99922.13
2022-12-08T18:59:50.073Z,99916.91
2022-12-08T19:02:16.319Z,99925.50
2022-12-08T19:04:42.539Z,99931.63
2022-12-08T19:07:08.720Z,99928.22
2022-12-08T19:09:34.890Z,99931.56
2022-12-08T19:12:01.073Z,99913.53
2022-12-08T19:14:28.565Z,99918.69
2022-12-08T19:16:54.995Z,99923.84
2022-12-08T19:19:21.178Z,99927.25
2022-12-08T19:21:47.290Z,99928.16
2022-12-08T19:24:13.476Z,99921.31
2022-12-08T19:26:39.634Z,99921.25
2022-12-08T19:29:05.797Z,99927.25
2022-12-08T19:31:32.068Z,99919.53
2022-12-08T19:33:58.324Z,99927.22
2022-12-08T19:36:24.541Z,99914.22
2022-12-08T19:38:50.680Z,99909.94
2022-12-08T19:41:16.791Z,99912.41
2022-12-08T19:43:43.003Z,99909.03
2022-12-08T19:46:09.221Z,99911.47
2022-12-08T19:48:35.526Z,99909.84
2022-12-08T19:51:01.677Z,99885.31
2022-12-08T19:53:27.789Z,99908.25
2022-12-08T19:55:54.025Z,99906.69
2022-12-08T19:58:20.197Z,99910.09
2022-12-08T20:00:46.382Z,99914.44
2022-12-08T20:03:12.567Z,99909.38
2022-12-08T20:05:38.739Z,99920.53
2022-12-08T20:08:05.063Z,99909.38
2022-12-08T20:10:31.311Z,99917.06
2022-12-08T20:12:57.550Z,99912.84
2022-12-08T20:15:23.774Z,99908.56
2022-12-08T20:17:50.016Z,99899.91
2022-12-08T20:20:16.237Z,99902.53
2022-12-08T20:22:42.441Z,99900.81
2022-12-08T20:25:12.758Z,99908.56
2022-12-08T20:27:39.572Z,99906.91
2022-12-08T20:30:05.784Z,99910.38
2022-12-08T20:32:31.950Z,99905.19
2022-12-08T20:34:58.091Z,99907.00
2022-12-08T20:37:24.271Z,99901.03
2022-12-08T20:39:50.473Z,99900.91
2022-12-08T20:42:16.635Z,99904.47
2022-12-08T20:44:42.799Z,99893.34
2022-12-08T20:47:09.048Z,99896.91
2022-12-08T20:49:35.340Z,99905.50
2022-12-08T20:52:01.500Z,99900.22
2022-12-08T20:54:28.067Z,99899.34
2022-12-08T20:56:54.458Z,99905.41
2022-12-08T20:59:20.811Z,99909.72
2022-12-08T21:01:47.224Z,99907.91
2022-12-08T21:04:13.645Z,99908.91
2022-12-08T21:06:39.984Z,99902.00
2022-12-08T21:09:06.340Z,99904.63
2022-12-08T21:11:32.920Z,99904.59
2022-12-08T21:13:59.149Z,99909.72
2022-12-08T21:16:25.523Z,99904.63
2022-12-08T21:18:51.748Z,99898.66
2022-12-08T21:21:17.966Z,99897.03
2022-12-08T21:23:44.183Z,99894.44
2022-12-08T21:26:10.475Z,99893.53
2022-12-08T21:28:36.760Z,99885.81
2022-12-08T21:31:03.084Z,99900.31
2022-12-08T21:33:29.436Z,99891.66
2022-12-08T21:35:55.982Z,99884.69
2022-12-08T21:38:22.211Z,99892.53
2022-12-08T21:40:48.560Z,99896.91
2022-12-08T21:43:14.901Z,99896.13
2022-12-08T21:45:41.197Z,99900.50
2022-12-08T21:48:11.422Z,99897.91
2022-12-08T21:50:38.335Z,99898.06
2022-12-08T21:53:04.594Z,99891.28
2022-12-08T21:55:30.754Z,99889.63
2022-12-08T21:57:56.958Z,99891.34
2022-12-08T22:00:23.678Z,99902.56
2022-12-08T22:02:50.163Z,99892.34
2022-12-08T22:05:16.452Z,99895.78
2022-12-08T22:07:42.740Z,99900.94
2022-12-08T22:10:09.778Z,99899.88
2022-12-08T22:12:36.463Z,99897.38
2022-12-08T22:15:02.816Z,99899.22
2022-12-08T22:17:29.099Z,99900.88
2022-12-08T22:19:55.703Z,99906.09
2022-12-08T22:22:21.921Z,99899.16
2022-12-08T22:24:48.027Z,99900.81
2022-12-08T22:27:14.307Z,99895.00
2022-12-08T22:29:40.634Z,99899.34
2022-12-08T22:32:06.809Z,99895.09
2022-12-08T22:34:33.206Z,99892.53
2022-12-08T22:36:59.353Z,99895.16
2022-12-08T22:39:25.474Z,99905.44
2022-12-08T22:41:51.597Z,99901.16
2022-12-08T22:44:17.703Z,99901.19
2022-12-08T22:46:44.076Z,99895.09
2022-12-08T22:49:10.223Z,99890.00
2022-12-08T22:51:36.374Z,99885.78
2022-12-08T22:54:02.507Z,99886.66
2022-12-08T22:56:28.606Z,99880.63
2022-12-08T22:58:54.790Z,99884.94
2022-12-08T23:01:21.004Z,99887.53
2022-12-08T23:03:47.364Z,99888.38
2022-12-08T23:06:13.700Z,99881.53
2022-12-08T23:08:39.966Z,99882.47
2022-12-08T23:11:06.219Z,99877.31
2022-12-08T23:13:32.365Z,99876.50
2022-12-08T23:15:58.744Z,99874.00
2022-12-08T23:18:24.893Z,99873.06
2022-12-08T23:20:51.125Z,99872.34
2022-12-08T23:23:17.271Z,99866.44
2022-12-08T23:25:43.385Z,99864.72
2022-12-08T23:28:09.706Z,99862.13
2022-12-08T23:30:35.899Z,99856.03
2022-12-08T23:33:02.207Z,99822.22
2022-12-08T23:35:28.641Z,99856.91
2022-12-08T23:37:54.784Z,99852.53
2022-12-08T23:40:20.890Z,99849.09
2022-12-08T23:42:47.101Z,99842.31
2022-12-08T23:45:13.407Z,99834.72
2022-12-08T23:47:39.550Z,99838.22
2022-12-08T23:50:06.140Z,99837.44
2022-12-08T23:52:32.671Z,99830.31
2022-12-08T23:54:58.803Z,99819.38
2022-12-08T23:57:24.924Z,99828.84
2022-12-08T23:59:51.126Z,99826.34
